createdAt,value
2018-12-05T00:01:09.062Z,49.30
2018-12-05T00:03:46.908Z,48.90
2018-12-05T00:06:17.981Z,48.90
2018-12-05T00:08:51.344Z,48.90
2018-12-05T00:11:22.553Z,48.80
2018-12-05T00:13:53.588Z,48.80
2018-12-05T00:16:24.661Z,48.50
2018-12-05T00:18:55.703Z,48.30
2018-12-05T00:21:26.773Z,48.30
2018-12-05T00:23:57.824Z,48.30
2018-12-05T00:26:28.903Z,48.40
2018-12-05T00:28:59.837Z,48.20
2018-12-05T00:31:30.893Z,48.20
2018-12-05T00:34:01.936Z,48.40
2018-12-05T00:36:33.001Z,48.60
2018-12-05T00:39:05.826Z,48.60
2018-12-05T00:41:38.573Z,48.60
2018-12-05T00:44:09.524Z,48.60
2018-12-05T00:46:40.492Z,48.70
2018-12-05T00:49:11.613Z,48.70
2018-12-05T00:51:42.743Z,48.60
2018-12-05T00:54:13.795Z,48.50
2018-12-05T00:56:44.873Z,48.50
2018-12-05T00:59:16.095Z,48.50
2018-12-05T01:01:47.151Z,48.60
2018-12-05T01:04:18.320Z,48.70
2018-12-05T01:06:49.401Z,48.70
2018-12-05T01:09:20.508Z,48.60
2018-12-05T01:11:51.612Z,48.60
2018-12-05T01:14:22.702Z,48.60
2018-12-05T01:16:53.792Z,48.60
2018-12-05T01:19:24.860Z,48.60
2018-12-05T01:21:56.029Z,48.60
2018-12-05T01:24:27.138Z,48.60
2018-12-05T01:27:03.398Z,48.80
2018-12-05T01:29:39.697Z,48.90
2018-12-05T01:32:16.015Z,48.90
2018-12-05T01:34:52.328Z,48.90
2018-12-05T01:37:28.557Z,49.00
2018-12-05T01:40:05.239Z,48.90
2018-12-05T01:42:41.697Z,49.00
2018-12-05T01:45:17.980Z,48.90
2018-12-05T01:47:54.240Z,48.90
2018-12-05T01:50:30.401Z,48.90
2018-12-05T01:53:06.618Z,48.80
2018-12-05T01:55:37.621Z,48.80
2018-12-05T01:58:08.780Z,48.80
2018-12-05T02:00:39.728Z,48.70
2018-12-05T02:03:10.820Z,48.70
2018-12-05T02:05:42.233Z,48.60
2018-12-05T02:08:13.312Z,48.80
2018-12-05T02:10:44.494Z,48.90
2018-12-05T02:13:15.601Z,48.90
2018-12-05T02:15:46.693Z,49.00
2018-12-05T02:18:17.690Z,49.00
2018-12-05T02:20:48.768Z,49.60
2018-12-05T02:23:19.866Z,49.00
2018-12-05T02:25:50.980Z,48.90
2018-12-05T02:28:22.094Z,48.90
2018-12-05T02:30:53.174Z,48.90
2018-12-05T02:33:24.187Z,48.80
2018-12-05T02:35:55.252Z,48.60
2018-12-05T02:38:26.381Z,48.70
2018-12-05T02:40:57.321Z,48.80
2018-12-05T02:43:28.431Z,48.60
2018-12-05T02:45:59.452Z,48.80
2018-12-05T02:48:30.533Z,48.60
2018-12-05T02:51:01.565Z,48.60
2018-12-05T02:53:33.009Z,48.60
2018-12-05T02:56:04.081Z,48.40
2018-12-05T02:58:35.194Z,48.50
2018-12-05T03:01:06.262Z,48.50
2018-12-05T03:03:37.434Z,48.40
2018-12-05T03:06:08.523Z,48.50
2018-12-05T03:08:39.712Z,48.60
2018-12-05T03:11:10.802Z,48.60
2018-12-05T03:13:41.961Z,48.60
2018-12-05T03:16:13.037Z,48.50
2018-12-05T03:18:44.224Z,48.60
2018-12-05T03:21:15.196Z,48.60
2018-12-05T03:23:46.309Z,48.60
2018-12-05T03:26:17.273Z,48.80
2018-12-05T03:28:48.392Z,48.80
2018-12-05T03:31:19.469Z,48.70
2018-12-05T03:33:51.546Z,48.90
2018-12-05T03:36:22.628Z,48.80
2018-12-05T03:38:53.732Z,48.90
2018-12-05T03:41:24.855Z,48.80
2018-12-05T03:43:56.052Z,48.80
2018-12-05T03:46:27.125Z,48.90
2018-12-05T03:48:58.237Z,48.90
2018-12-05T03:51:29.297Z,48.80
2018-12-05T03:54:00.399Z,48.70
2018-12-05T03:56:31.372Z,48.60
2018-12-05T03:59:02.388Z,48.70
2018-12-05T04:01:33.586Z,48.70
2018-12-05T04:04:04.681Z,48.70
2018-12-05T04:06:35.781Z,48.60
2018-12-05T04:09:07.904Z,48.60
2018-12-05T04:11:38.890Z,48.60
2018-12-05T04:14:10.061Z,48.60
2018-12-05T04:16:41.132Z,48.40
2018-12-05T04:19:12.254Z,48.40
2018-12-05T04:21:43.353Z,48.40
2018-12-05T04:24:14.452Z,48.30
2018-12-05T04:26:45.634Z,48.30
2018-12-05T04:29:16.736Z,48.40
2018-12-05T04:31:48.102Z,48.50
2018-12-05T04:34:19.212Z,48.60
2018-12-05T04:36:50.181Z,48.50
2018-12-05T04:39:21.300Z,48.60
2018-12-05T04:41:52.740Z,48.60
2018-12-05T04:44:23.745Z,48.60
2018-12-05T04:46:54.832Z,48.60
2018-12-05T04:49:25.924Z,48.60
2018-12-05T04:51:57.111Z,48.60
2018-12-05T04:54:28.196Z,48.70
2018-12-05T04:56:59.264Z,48.70
2018-12-05T04:59:30.372Z,48.80
2018-12-05T05:02:01.364Z,48.90
2018-12-05T05:04:32.481Z,48.90
2018-12-05T05:07:03.664Z,48.80
2018-12-05T05:09:34.745Z,48.80
2018-12-05T05:12:06.609Z,48.90
2018-12-05T05:14:37.564Z,48.80
2018-12-05T05:17:08.605Z,48.90
2018-12-05T05:19:39.677Z,49.00
2018-12-05T05:22:10.731Z,49.00
2018-12-05T05:24:41.799Z,49.00
2018-12-05T05:27:12.843Z,48.90
2018-12-05T05:29:43.929Z,48.80
2018-12-05T05:32:14.986Z,48.70
2018-12-05T05:34:46.049Z,48.80
2018-12-05T05:37:17.082Z,48.70
2018-12-05T05:39:49.997Z,48.80
2018-12-05T05:42:21.041Z,48.80
2018-12-05T05:44:52.109Z,48.60
2018-12-05T05:47:23.173Z,48.70
2018-12-05T05:49:54.252Z,48.60
2018-12-05T05:52:25.171Z,48.70
2018-12-05T05:54:56.245Z,48.90
2018-12-05T05:57:27.372Z,49.00
2018-12-05T05:59:58.537Z,49.00
2018-12-05T06:02:29.460Z,49.00
2018-12-05T06:05:00.529Z,49.20
2018-12-05T06:07:31.491Z,49.20
2018-12-05T06:10:02.612Z,49.30
2018-12-05T06:12:33.675Z,49.40
2018-12-05T06:15:05.878Z,49.20
2018-12-05T06:17:36.965Z,49.10
2018-12-05T06:20:08.125Z,49.30
2018-12-05T06:22:39.210Z,49.40
2018-12-05T06:25:10.209Z,49.20
2018-12-05T06:27:41.296Z,49.00
2018-12-05T06:30:12.297Z,49.10
2018-12-05T06:32:43.370Z,49.10
2018-12-05T06:35:14.489Z,49.10
2018-12-05T06:37:45.562Z,49.20
2018-12-05T06:40:23.136Z,49.20
2018-12-05T06:42:54.222Z,49.20
2018-12-05T06:45:25.407Z,49.40
2018-12-05T06:47:56.585Z,49.50
2018-12-05T06:50:28.768Z,49.30
2018-12-05T06:52:59.826Z,49.20
2018-12-05T06:55:30.835Z,49.20
2018-12-05T06:58:01.805Z,49.80
2018-12-05T07:00:32.917Z,49.10
2018-12-05T07:03:04.018Z,49.10
2018-12-05T07:05:35.141Z,49.10
2018-12-05T07:08:06.217Z,49.10
2018-12-05T07:10:37.341Z,49.40
2018-12-05T07:13:08.444Z,49.40
2018-12-05T07:15:40.421Z,49.40
2018-12-05T07:18:11.593Z,49.30
2018-12-05T07:20:42.742Z,49.30
2018-12-05T07:23:13.827Z,49.20
2018-12-05T07:25:44.856Z,49.30
2018-12-05T07:28:15.830Z,49.30
2018-12-05T07:30:46.941Z,49.20
2018-12-05T07:33:18.120Z,49.20
2018-12-05T07:35:49.335Z,49.20
2018-12-05T07:38:20.391Z,49.20
2018-12-05T07:40:51.495Z,49.20
2018-12-05T07:43:22.577Z,49.20
2018-12-05T07:45:53.565Z,49.30
2018-12-05T07:48:24.668Z,49.20
2018-12-05T07:50:55.857Z,49.30
2018-12-05T07:53:26.952Z,49.20
2018-12-05T07:55:58.063Z,49.30
2018-12-05T07:58:29.144Z,49.30
2018-12-05T08:01:00.248Z,49.50
2018-12-05T08:03:31.336Z,49.60
2018-12-05T08:06:02.455Z,49.70
2018-12-05T08:08:33.537Z,49.70
2018-12-05T08:11:04.647Z,49.50
2018-12-05T08:13:35.660Z,49.50
2018-12-05T08:16:06.734Z,49.30
2018-12-05T08:18:37.854Z,49.30
2018-12-05T08:21:08.949Z,49.50
2018-12-05T08:23:39.901Z,49.50
2018-12-05T08:26:11.007Z,50.20
2018-12-05T08:28:42.119Z,49.90
2018-12-05T08:31:13.276Z,50.00
2018-12-05T08:33:44.338Z,50.10
2018-12-05T08:36:15.428Z,50.00
2018-12-05T08:38:46.505Z,49.90
2018-12-05T08:41:17.505Z,49.90
2018-12-05T08:43:48.573Z,49.90
2018-12-05T08:46:19.568Z,49.80
2018-12-05T08:48:52.061Z,49.80
2018-12-05T08:51:23.400Z,49.80
2018-12-05T08:53:54.651Z,49.80
2018-12-05T08:56:25.756Z,50.00
2018-12-05T08:58:56.805Z,50.00
2018-12-05T09:01:27.908Z,49.90
2018-12-05T09:03:58.957Z,50.00
2018-12-05T09:06:30.121Z,50.00
2018-12-05T09:09:01.132Z,50.20
2018-12-05T09:11:34.220Z,50.20
2018-12-05T09:14:05.300Z,50.20
2018-12-05T09:16:36.479Z,50.30
2018-12-05T09:19:14.251Z,50.40
2018-12-05T09:21:45.381Z,50.50
2018-12-05T09:24:16.357Z,50.40
2018-12-05T09:26:47.533Z,51.20
2018-12-05T09:29:18.511Z,50.50
2018-12-05T09:31:49.613Z,50.60
2018-12-05T09:34:21.412Z,50.60
2018-12-05T09:36:52.527Z,50.60
2018-12-05T09:39:23.578Z,50.90
2018-12-05T09:41:54.749Z,50.80
2018-12-05T09:44:25.824Z,50.90
2018-12-05T09:46:56.926Z,50.90
2018-12-05T09:49:28.056Z,50.80
2018-12-05T09:51:59.136Z,50.70
2018-12-05T09:54:30.212Z,50.90
2018-12-05T09:57:01.292Z,51.10
2018-12-05T09:59:32.369Z,51.10
2018-12-05T10:02:03.553Z,51.20
2018-12-05T10:04:34.700Z,51.20
2018-12-05T10:07:05.702Z,51.80
2018-12-05T10:09:36.824Z,51.30
2018-12-05T10:12:08.044Z,51.40
2018-12-05T10:14:39.129Z,51.50
2018-12-05T10:17:10.350Z,51.50
2018-12-05T10:19:41.338Z,51.40
2018-12-05T10:22:12.504Z,51.40
2018-12-05T10:24:43.661Z,51.40
2018-12-05T10:27:14.773Z,51.40
2018-12-05T10:29:45.867Z,51.50
2018-12-05T10:32:16.872Z,51.30
2018-12-05T10:34:48.012Z,51.30
2018-12-05T10:37:19.129Z,51.30
2018-12-05T10:39:50.640Z,51.40
2018-12-05T10:42:21.753Z,51.40
2018-12-05T10:44:52.850Z,51.50
2018-12-05T10:47:24.066Z,51.60
2018-12-05T10:49:55.162Z,51.70
2018-12-05T10:52:34.008Z,51.80
2018-12-05T10:55:05.620Z,51.80
2018-12-05T10:57:41.915Z,51.70
2018-12-05T11:00:24.713Z,51.90
2018-12-05T11:03:06.344Z,51.90
2018-12-05T11:05:47.626Z,52.00
2018-12-05T11:08:22.252Z,52.10
2018-12-05T11:10:58.727Z,52.10
2018-12-05T11:13:34.940Z,52.20
2018-12-05T11:16:17.072Z,51.80
2018-12-05T11:18:53.276Z,52.60
2018-12-05T11:21:29.672Z,51.60
2018-12-05T11:24:04.853Z,51.60
2018-12-05T11:26:38.125Z,51.60
2018-12-05T11:29:09.288Z,51.40
2018-12-05T11:31:40.388Z,51.40
2018-12-05T11:34:11.500Z,51.30
2018-12-05T11:36:42.588Z,51.30
2018-12-05T11:39:13.691Z,51.30
2018-12-05T11:41:44.680Z,51.40
2018-12-05T11:44:15.802Z,51.00
2018-12-05T11:46:48.508Z,51.20
2018-12-05T11:49:19.896Z,51.20
2018-12-05T11:51:50.864Z,51.20
2018-12-05T11:54:21.984Z,51.30
2018-12-05T11:56:53.155Z,51.60
2018-12-05T11:59:24.261Z,51.60
2018-12-05T12:01:55.467Z,51.60
2018-12-05T12:04:26.676Z,51.40
2018-12-05T12:06:57.769Z,51.50
2018-12-05T12:09:28.914Z,51.30
2018-12-05T12:11:59.930Z,51.20
2018-12-05T12:14:31.061Z,51.30
2018-12-05T12:17:02.140Z,51.10
2018-12-05T12:19:33.276Z,51.50
2018-12-05T12:22:04.362Z,51.60
2018-12-05T12:24:35.547Z,51.70
2018-12-05T12:27:06.748Z,51.60
2018-12-05T12:29:37.884Z,51.50
2018-12-05T12:32:09.001Z,51.50
2018-12-05T12:34:40.051Z,51.40
2018-12-05T12:37:11.148Z,51.40
2018-12-05T12:39:42.268Z,51.50
2018-12-05T12:42:13.384Z,51.60
2018-12-05T12:44:44.501Z,51.60
2018-12-05T12:47:15.600Z,51.50
2018-12-05T12:49:46.712Z,51.50
2018-12-05T12:52:17.811Z,51.50
2018-12-05T12:54:48.980Z,51.40
2018-12-05T12:57:20.065Z,51.50
2018-12-05T12:59:51.186Z,51.40
2018-12-05T13:02:23.671Z,51.40
2018-12-05T13:04:54.919Z,51.20
2018-12-05T13:07:26.026Z,51.10
2018-12-05T13:09:57.168Z,51.10
2018-12-05T13:12:35.308Z,51.30
2018-12-05T13:15:06.459Z,51.60
2018-12-05T13:17:37.547Z,51.50
2018-12-05T13:20:08.873Z,51.40
2018-12-05T13:22:40.070Z,51.40
2018-12-05T13:25:11.261Z,51.20
2018-12-05T13:27:42.340Z,51.30
2018-12-05T13:30:13.552Z,51.10
2018-12-05T13:32:44.793Z,51.00
2018-12-05T13:35:16.013Z,51.10
2018-12-05T13:37:47.115Z,50.90
2018-12-05T13:40:18.233Z,50.90
2018-12-05T13:42:49.388Z,50.80
2018-12-05T13:45:20.769Z,50.80
2018-12-05T13:47:52.056Z,50.70
2018-12-05T13:50:23.165Z,50.60
2018-12-05T13:52:54.364Z,50.60
2018-12-05T13:55:25.487Z,50.60
2018-12-05T13:57:56.569Z,50.50
2018-12-05T14:00:27.713Z,50.40
2018-12-05T14:02:58.802Z,50.60
2018-12-05T14:05:29.924Z,50.60
2018-12-05T14:08:01.192Z,50.60
2018-12-05T14:10:32.334Z,50.60
2018-12-05T14:13:03.437Z,50.60
2018-12-05T14:15:34.558Z,50.60
2018-12-05T14:18:05.660Z,50.60
2018-12-05T14:20:36.777Z,50.50
2018-12-05T14:23:07.972Z,50.60
2018-12-05T14:25:39.169Z,50.60
2018-12-05T14:28:10.314Z,50.60
2018-12-05T14:30:41.429Z,50.50
2018-12-05T14:33:12.510Z,50.60
2018-12-05T14:35:43.641Z,50.50
2018-12-05T14:38:14.937Z,50.60
2018-12-05T14:40:46.412Z,50.60
2018-12-05T14:43:17.509Z,50.60
2018-12-05T14:45:48.713Z,50.60
2018-12-05T14:48:19.702Z,50.60
2018-12-05T14:50:50.798Z,50.60
2018-12-05T14:53:21.805Z,50.70
2018-12-05T14:55:52.889Z,50.60
2018-12-05T14:58:24.001Z,50.60
2018-12-05T15:00:55.000Z,50.70
2018-12-05T15:03:26.126Z,50.70
2018-12-05T15:05:57.209Z,50.90
2018-12-05T15:08:28.362Z,50.70
2018-12-05T15:10:59.479Z,50.70
2018-12-05T15:13:30.686Z,50.60
2018-12-05T15:16:01.764Z,50.60
2018-12-05T15:18:32.868Z,50.60
2018-12-05T15:21:10.706Z,50.60
2018-12-05T15:23:41.896Z,50.70
2018-12-05T15:26:13.049Z,50.70
2018-12-05T15:28:44.220Z,50.70
2018-12-05T15:31:15.361Z,50.80
2018-12-05T15:33:46.529Z,50.80
2018-12-05T15:36:17.684Z,50.90
2018-12-05T15:38:48.861Z,50.80
2018-12-05T15:41:19.927Z,50.70
2018-12-05T15:43:51.033Z,50.90
2018-12-05T15:46:22.121Z,50.70
2018-12-05T15:48:53.901Z,50.50
2018-12-05T15:51:24.973Z,50.50
2018-12-05T15:53:56.104Z,50.50
2018-12-05T15:56:27.094Z,50.50
2018-12-05T15:58:58.196Z,50.50
2018-12-05T16:01:29.289Z,50.40
2018-12-05T16:04:00.392Z,50.40
2018-12-05T16:06:31.475Z,50.40
2018-12-05T16:09:02.597Z,50.40
2018-12-05T16:11:35.661Z,50.40
2018-12-05T16:14:06.889Z,50.40
2018-12-05T16:16:38.616Z,50.40
2018-12-05T16:19:09.756Z,50.40
2018-12-05T16:21:40.720Z,50.70
2018-12-05T16:24:13.306Z,50.60
2018-12-05T16:26:44.399Z,50.80
2018-12-05T16:29:15.427Z,51.00
2018-12-05T16:31:46.501Z,51.00
2018-12-05T16:34:17.516Z,51.20
2018-12-05T16:36:48.602Z,51.30
2018-12-05T16:39:19.685Z,51.30
2018-12-05T16:41:50.820Z,51.40
2018-12-05T16:44:22.058Z,51.40
2018-12-05T16:46:53.204Z,51.50
2018-12-05T16:49:24.268Z,51.50
2018-12-05T16:51:55.358Z,51.60
2018-12-05T16:54:26.996Z,51.60
2018-12-05T16:56:58.185Z,51.40
2018-12-05T16:59:29.294Z,51.30
2018-12-05T17:02:00.299Z,51.40
2018-12-05T17:04:31.443Z,51.20
2018-12-05T17:07:02.523Z,51.10
2018-12-05T17:09:33.649Z,51.10
2018-12-05T17:12:04.620Z,51.10
2018-12-05T17:14:35.655Z,51.10
2018-12-05T17:17:06.817Z,51.10
2018-12-05T17:19:37.912Z,51.10
2018-12-05T17:22:09.016Z,51.20
2018-12-05T17:24:40.034Z,51.10
2018-12-05T17:27:11.416Z,51.10
2018-12-05T17:29:42.641Z,51.10
2018-12-05T17:32:13.729Z,51.20
2018-12-05T17:34:44.973Z,51.20
2018-12-05T17:37:16.059Z,51.20
2018-12-05T17:39:47.120Z,51.20
2018-12-05T17:42:18.245Z,51.20
2018-12-05T17:44:49.593Z,51.20
2018-12-05T17:47:20.724Z,51.20
2018-12-05T17:49:52.453Z,51.20
2018-12-05T17:52:23.563Z,51.20
2018-12-05T17:54:54.609Z,51.00
2018-12-05T17:57:25.709Z,51.00
2018-12-05T17:59:56.884Z,51.00
2018-12-05T18:02:27.968Z,51.00
2018-12-05T18:04:59.085Z,51.00
2018-12-05T18:07:30.096Z,50.90
2018-12-05T18:10:01.247Z,51.00
2018-12-05T18:12:32.377Z,51.00
2018-12-05T18:15:03.527Z,51.00
2018-12-05T18:17:34.600Z,50.90
2018-12-05T18:20:08.103Z,51.00
2018-12-05T18:22:39.258Z,51.00
2018-12-05T18:25:10.385Z,51.00
2018-12-05T18:27:41.480Z,51.00
2018-12-05T18:30:12.616Z,50.90
2018-12-05T18:32:43.898Z,50.90
2018-12-05T18:35:15.104Z,50.90
2018-12-05T18:37:46.288Z,50.90
2018-12-05T18:40:17.410Z,50.90
2018-12-05T18:42:48.389Z,50.90
2018-12-05T18:45:19.516Z,50.90
2018-12-05T18:47:50.602Z,50.90
2018-12-05T18:50:21.716Z,50.90
2018-12-05T18:52:52.795Z,50.90
2018-12-05T18:55:23.916Z,51.60
2018-12-05T18:57:55.028Z,50.90
2018-12-05T19:00:26.043Z,50.90
2018-12-05T19:02:57.137Z,51.10
2018-12-05T19:05:28.249Z,51.20
2018-12-05T19:08:00.410Z,51.00
2018-12-05T19:10:31.420Z,51.00
2018-12-05T19:13:02.523Z,51.10
2018-12-05T19:15:33.685Z,51.10
2018-12-05T19:18:05.393Z,51.10
2018-12-05T19:20:36.689Z,51.20
2018-12-05T19:23:07.813Z,51.20
2018-12-05T19:25:39.001Z,51.20
2018-12-05T19:28:09.990Z,51.20
2018-12-05T19:30:41.102Z,51.20
2018-12-05T19:33:12.184Z,51.20
2018-12-05T19:35:43.284Z,51.20
2018-12-05T19:38:14.258Z,51.30
2018-12-05T19:40:45.341Z,51.20
2018-12-05T19:43:16.433Z,51.20
2018-12-05T19:45:47.581Z,51.20
2018-12-05T19:48:18.666Z,51.30
2018-12-05T19:50:49.839Z,51.40
2018-12-05T19:53:21.027Z,51.40
2018-12-05T19:55:52.150Z,51.40
2018-12-05T19:58:23.240Z,51.40
2018-12-05T20:00:54.237Z,51.30
2018-12-05T20:03:25.332Z,51.30
2018-12-05T20:05:56.438Z,51.30
2018-12-05T20:08:27.513Z,51.30
2018-12-05T20:10:58.617Z,51.30
2018-12-05T20:13:29.600Z,51.30
2018-12-05T20:16:00.852Z,51.20
2018-12-05T20:18:31.993Z,51.20
2018-12-05T20:21:03.596Z,51.30
2018-12-05T20:23:34.677Z,51.30
2018-12-05T20:26:05.846Z,51.30
2018-12-05T20:28:36.979Z,51.40
2018-12-05T20:31:08.104Z,51.30
2018-12-05T20:33:39.282Z,51.40
2018-12-05T20:36:10.393Z,51.40
2018-12-05T20:38:41.501Z,51.40
2018-12-05T20:41:12.751Z,51.40
2018-12-05T20:43:43.836Z,51.40
2018-12-05T20:46:15.125Z,51.30
2018-12-05T20:48:46.215Z,51.40
2018-12-05T20:51:17.341Z,51.20
2018-12-05T20:53:48.424Z,51.10
2018-12-05T20:56:19.534Z,51.10
2018-12-05T20:58:50.616Z,51.10
2018-12-05T21:01:21.872Z,51.10
2018-12-05T21:03:53.553Z,51.10
2018-12-05T21:06:24.660Z,51.10
2018-12-05T21:08:55.753Z,51.00
2018-12-05T21:11:27.122Z,51.00
2018-12-05T21:13:58.201Z,51.10
2018-12-05T21:16:29.345Z,51.10
2018-12-05T21:19:00.476Z,51.10
2018-12-05T21:21:31.597Z,51.30
2018-12-05T21:24:02.971Z,51.30
2018-12-05T21:26:34.092Z,51.30
2018-12-05T21:29:05.085Z,51.20
2018-12-05T21:31:36.337Z,51.30
2018-12-05T21:34:07.432Z,51.30
2018-12-05T21:36:38.453Z,51.20
2018-12-05T21:39:10.889Z,51.20
2018-12-05T21:41:41.908Z,51.20
2018-12-05T21:44:13.041Z,51.10
2018-12-05T21:46:44.943Z,51.20
2018-12-05T21:49:16.132Z,51.20
2018-12-05T21:51:47.268Z,51.20
2018-12-05T21:54:18.364Z,51.30
2018-12-05T21:56:49.494Z,51.40
2018-12-05T21:59:20.586Z,51.20
2018-12-05T22:01:51.721Z,51.20
2018-12-05T22:04:22.710Z,51.30
2018-12-05T22:06:53.817Z,51.20
2018-12-05T22:09:24.912Z,51.30
2018-12-05T22:11:56.060Z,52.00
2018-12-05T22:14:27.144Z,51.20
2018-12-05T22:16:58.365Z,51.30
2018-12-05T22:19:29.454Z,51.30
2018-12-05T22:22:00.460Z,51.30
2018-12-05T22:24:31.557Z,51.40
2018-12-05T22:27:02.687Z,51.30
2018-12-05T22:29:33.775Z,51.40
2018-12-05T22:32:04.988Z,51.40
2018-12-05T22:34:36.094Z,51.50
2018-12-05T22:37:07.212Z,51.50
2018-12-05T22:39:38.308Z,52.20
2018-12-05T22:42:09.488Z,51.30
2018-12-05T22:44:40.475Z,51.20
2018-12-05T22:47:11.613Z,51.20
2018-12-05T22:49:42.745Z,51.30
2018-12-05T22:52:13.867Z,51.30
2018-12-05T22:54:45.108Z,51.30
2018-12-05T22:57:16.874Z,51.30
2018-12-05T22:59:47.973Z,51.20
2018-12-05T23:02:19.114Z,51.30
2018-12-05T23:04:52.163Z,51.30
2018-12-05T23:07:23.288Z,51.30
2018-12-05T23:09:54.410Z,51.30
2018-12-05T23:12:25.537Z,51.50
2018-12-05T23:15:01.745Z,51.50
2018-12-05T23:17:37.969Z,51.60
2018-12-05T23:20:14.361Z,51.60
2018-12-05T23:22:50.648Z,51.50
2018-12-05T23:25:21.730Z,51.50
2018-12-05T23:27:52.849Z,51.50
2018-12-05T23:30:23.945Z,51.60
2018-12-05T23:32:55.050Z,51.60
2018-12-05T23:35:26.149Z,51.70
2018-12-05T23:37:57.264Z,52.50
2018-12-05T23:40:28.355Z,51.80
2018-12-05T23:42:59.664Z,51.60
2018-12-05T23:45:30.751Z,51.70
2018-12-05T23:48:01.747Z,51.80
2018-12-05T23:50:32.844Z,51.80
2018-12-05T23:53:03.952Z,51.80
2018-12-05T23:55:35.034Z,51.80
2018-12-05T23:58:06.142Z,51.90
